createdAt,value
2018-11-21T00:00:24.224Z,2.20
2018-11-21T00:02:54.593Z,2.60
2018-11-21T00:05:24.379Z,2.50
2018-11-21T00:07:54.300Z,2.20
2018-11-21T00:10:24.201Z,2.30
2018-11-21T00:12:55.644Z,2.40
2018-11-21T00:15:25.698Z,2.40
2018-11-21T00:17:55.915Z,3.10
2018-11-21T00:20:25.864Z,2.77
2018-11-21T00:22:55.837Z,2.83
2018-11-21T00:25:25.924Z,2.40
2018-11-21T00:27:56.051Z,2.50
2018-11-21T00:30:25.844Z,2.43
2018-11-21T00:32:55.699Z,3.13
2018-11-21T00:35:25.726Z,2.70
2018-11-21T00:37:56.021Z,2.53
2018-11-21T00:40:25.651Z,2.60
2018-11-21T00:42:55.745Z,2.53
2018-11-21T00:45:25.671Z,2.50
2018-11-21T00:47:55.438Z,2.00
2018-11-21T00:50:25.185Z,2.07
2018-11-21T00:52:55.284Z,2.63
2018-11-21T00:55:25.344Z,2.40
2018-11-21T00:57:55.207Z,2.50
2018-11-21T01:00:25.538Z,2.30
2018-11-21T01:02:55.370Z,2.63
2018-11-21T01:05:25.281Z,2.20
2018-11-21T01:07:55.248Z,2.33
2018-11-21T01:10:25.243Z,2.17
2018-11-21T01:12:55.258Z,2.30
2018-11-21T01:15:25.097Z,2.63
2018-11-21T01:17:54.857Z,2.43
2018-11-21T01:20:24.833Z,2.30
2018-11-21T01:22:55.039Z,2.20
2018-11-21T01:25:25.219Z,2.60
2018-11-21T01:28:43.389Z,2.20
2018-11-21T01:31:13.444Z,2.20
2018-11-21T01:33:43.104Z,2.42
2018-11-21T01:36:12.924Z,2.03
2018-11-21T01:38:42.683Z,1.83
2018-11-21T01:41:13.104Z,2.57
2018-11-21T01:43:43.154Z,2.63
2018-11-21T01:46:12.963Z,2.50
2018-11-21T01:48:42.960Z,2.33
2018-11-21T01:51:12.804Z,2.33
2018-11-21T01:53:43.599Z,2.30
2018-11-21T01:56:13.454Z,2.60
2018-11-21T01:58:43.684Z,2.10
2018-11-21T02:01:13.634Z,2.20
2018-11-21T02:03:43.429Z,2.47
2018-11-21T02:06:13.309Z,2.57
2018-11-21T02:08:43.269Z,2.77
2018-11-21T02:11:13.354Z,3.23
2018-11-21T02:13:43.673Z,3.27
2018-11-21T02:16:13.430Z,4.80
2018-11-21T02:18:43.299Z,4.03
2018-11-21T02:21:13.770Z,2.50
2018-11-21T02:23:44.034Z,4.53
2018-11-21T02:26:13.805Z,3.27
2018-11-21T02:28:44.604Z,3.67
2018-11-21T02:31:14.554Z,2.97
2018-11-21T02:33:44.290Z,3.63
2018-11-21T02:36:14.294Z,3.20
2018-11-21T02:38:44.399Z,3.30
2018-11-21T02:41:14.379Z,3.20
2018-11-21T02:43:44.644Z,3.10
2018-11-21T02:46:14.905Z,3.40
2018-11-21T02:48:44.768Z,3.47
2018-11-21T02:51:15.011Z,3.40
2018-11-21T02:53:44.744Z,3.50
2018-11-21T02:56:14.714Z,3.27
2018-11-21T02:58:45.054Z,3.52
2018-11-21T03:01:15.209Z,3.47
2018-11-21T03:03:45.141Z,3.60
2018-11-21T03:06:15.163Z,3.30
2018-11-21T03:08:44.913Z,3.43
2018-11-21T03:11:14.905Z,2.93
2018-11-21T03:13:44.819Z,3.07
2018-11-21T03:16:14.905Z,3.63
2018-11-21T03:18:44.634Z,3.73
2018-11-21T03:21:14.788Z,4.10
2018-11-21T03:23:44.485Z,3.43
2018-11-21T03:26:14.233Z,4.00
2018-11-21T03:28:44.299Z,3.45
2018-11-21T03:31:14.099Z,3.67
2018-11-21T03:33:44.215Z,3.70
2018-11-21T03:36:14.164Z,2.90
2018-11-21T03:38:43.945Z,3.60
2018-11-21T03:41:13.749Z,4.40
2018-11-21T03:43:46.245Z,3.67
2018-11-21T03:46:16.349Z,3.60
2018-11-21T03:48:46.535Z,3.70
2018-11-21T03:51:16.169Z,4.37
2018-11-21T03:53:46.394Z,3.87
2018-11-21T03:56:16.268Z,4.10
2018-11-21T03:58:46.058Z,3.40
2018-11-21T04:01:16.734Z,3.90
2018-11-21T04:03:46.949Z,4.08
2018-11-21T04:06:16.792Z,3.60
2018-11-21T04:08:48.654Z,3.90
2018-11-21T04:11:18.769Z,3.90
2018-11-21T04:13:48.769Z,3.23
2018-11-21T04:16:18.749Z,4.37
2018-11-21T04:18:52.585Z,3.67
2018-11-21T04:21:22.519Z,4.07
2018-11-21T04:23:52.343Z,3.97
2018-11-21T04:26:25.175Z,12.53
2018-11-21T04:28:57.583Z,14.03
2018-11-21T04:31:27.848Z,12.87
2018-11-21T04:33:58.210Z,12.87
2018-11-21T04:36:28.364Z,13.10
2018-11-21T04:39:00.788Z,10.83
2018-11-21T04:41:31.004Z,7.87
2018-11-21T04:44:01.396Z,6.27
2018-11-21T04:46:31.150Z,5.17
2018-11-21T04:49:01.409Z,5.33
2018-11-21T04:51:31.303Z,4.80
2018-11-21T04:54:01.199Z,4.47
2018-11-21T04:56:31.089Z,3.77
2018-11-21T04:59:01.360Z,4.77
2018-11-21T05:01:31.379Z,4.33
2018-11-21T05:04:01.570Z,4.93
2018-11-21T05:06:31.655Z,5.07
2018-11-21T05:09:01.479Z,4.87
2018-11-21T05:11:31.479Z,5.37
2018-11-21T05:14:01.444Z,5.23
2018-11-21T05:16:31.633Z,5.27
2018-11-21T05:19:01.908Z,4.90
2018-11-21T05:21:32.079Z,5.05
2018-11-21T05:24:05.829Z,5.20
2018-11-21T05:26:35.984Z,5.40
2018-11-21T05:29:05.739Z,4.77
2018-11-21T05:31:35.810Z,5.37
2018-11-21T05:34:07.475Z,4.87
2018-11-21T05:36:37.209Z,5.23
2018-11-21T05:39:10.909Z,5.60
2018-11-21T05:41:41.049Z,5.80
2018-11-21T05:44:10.970Z,5.37
2018-11-21T05:46:40.883Z,5.97
2018-11-21T05:49:11.259Z,5.67
2018-11-21T05:51:41.137Z,5.20
2018-11-21T05:54:11.265Z,5.43
2018-11-21T05:56:41.164Z,5.77
2018-11-21T05:59:11.334Z,6.00
2018-11-21T06:01:41.509Z,6.60
2018-11-21T06:04:11.504Z,6.47
2018-11-21T06:06:42.447Z,6.62
2018-11-21T06:09:13.570Z,6.00
2018-11-21T06:11:44.110Z,5.37
2018-11-21T06:14:13.959Z,5.67
2018-11-21T06:16:43.784Z,5.00
2018-11-21T06:19:14.179Z,5.73
2018-11-21T06:21:44.017Z,6.17
2018-11-21T06:24:13.819Z,6.10
2018-11-21T06:26:43.749Z,5.33
2018-11-21T06:29:13.825Z,5.70
2018-11-21T06:31:43.580Z,5.22
2018-11-21T06:34:13.712Z,4.97
2018-11-21T06:36:43.619Z,5.15
2018-11-21T06:39:13.464Z,4.73
2018-11-21T06:41:43.561Z,4.67
2018-11-21T06:44:13.399Z,3.67
2018-11-21T06:46:43.964Z,3.83
2018-11-21T06:49:14.605Z,4.40
2018-11-21T06:51:44.619Z,4.17
2018-11-21T06:54:15.498Z,4.60
2018-11-21T06:56:45.434Z,3.33
2018-11-21T06:59:15.644Z,3.10
2018-11-21T07:01:45.825Z,3.10
2018-11-21T07:04:15.679Z,2.93
2018-11-21T07:06:45.564Z,2.47
2018-11-21T07:09:15.675Z,2.47
2018-11-21T07:11:46.888Z,2.57
2018-11-21T07:14:15.525Z,2.73
2018-11-21T07:16:45.365Z,3.33
2018-11-21T07:19:15.630Z,3.20
2018-11-21T07:21:45.454Z,3.43
2018-11-21T07:24:15.639Z,3.50
2018-11-21T07:26:45.749Z,3.20
2018-11-21T07:29:15.573Z,3.27
2018-11-21T07:31:45.393Z,2.60
2018-11-21T07:34:15.679Z,2.57
2018-11-21T07:36:54.708Z,2.73
2018-11-21T07:39:24.900Z,2.53
2018-11-21T07:41:55.425Z,2.43
2018-11-21T07:44:25.184Z,2.53
2018-11-21T07:46:55.359Z,2.30
2018-11-21T07:49:25.179Z,2.80
2018-11-21T07:51:55.345Z,2.02
2018-11-21T07:54:25.299Z,1.87
2018-11-21T07:57:47.244Z,2.37
2018-11-21T08:01:00.290Z,2.60
2018-11-21T08:03:32.161Z,1.77
2018-11-21T08:06:08.504Z,2.37
2018-11-21T08:08:55.674Z,2.20
2018-11-21T08:11:43.329Z,1.93
2018-11-21T08:14:30.494Z,1.90
2018-11-21T08:17:25.343Z,2.00
2018-11-21T08:20:19.984Z,2.23
2018-11-21T08:23:11.824Z,2.87
2018-11-21T08:26:04.629Z,2.55
2018-11-21T08:28:35.267Z,2.60
2018-11-21T08:31:12.414Z,2.30
2018-11-21T08:33:42.269Z,2.30
2018-11-21T08:36:12.464Z,2.30
2018-11-21T08:38:42.684Z,2.35
2018-11-21T08:41:12.935Z,2.77
2018-11-21T08:43:42.929Z,2.57
2018-11-21T08:46:13.280Z,2.70
2018-11-21T08:48:43.565Z,2.37
2018-11-21T08:51:13.739Z,2.67
2018-11-21T08:53:43.844Z,2.50
2018-11-21T08:56:13.645Z,2.70
2018-11-21T08:58:44.732Z,3.00
2018-11-21T09:01:14.715Z,2.70
2018-11-21T09:03:44.949Z,3.13
2018-11-21T09:06:15.015Z,2.77
2018-11-21T09:08:44.744Z,3.10
2018-11-21T09:11:15.114Z,3.00
2018-11-21T09:13:44.895Z,3.05
2018-11-21T09:16:15.244Z,2.53
2018-11-21T09:18:45.227Z,2.47
2018-11-21T09:21:15.143Z,3.23
2018-11-21T09:23:45.096Z,2.70
2018-11-21T09:26:14.859Z,4.00
2018-11-21T09:28:45.274Z,3.13
2018-11-21T09:31:15.174Z,3.70
2018-11-21T09:33:44.990Z,3.20
2018-11-21T09:36:15.040Z,3.30
2018-11-21T09:38:44.845Z,3.80
2018-11-21T09:41:14.679Z,2.47
2018-11-21T09:43:44.570Z,3.13
2018-11-21T09:46:17.279Z,3.30
2018-11-21T09:48:44.670Z,2.77
2018-11-21T09:51:17.849Z,3.70
2018-11-21T09:53:47.898Z,2.60
2018-11-21T09:56:17.950Z,2.50
2018-11-21T09:58:48.144Z,2.77
2018-11-21T10:01:54.444Z,2.90
2018-11-21T10:04:24.693Z,3.00
2018-11-21T10:06:54.492Z,3.10
2018-11-21T10:09:27.273Z,2.93
2018-11-21T10:11:57.509Z,3.00
2018-11-21T10:14:27.279Z,2.90
2018-11-21T10:16:57.271Z,2.73
2018-11-21T10:19:30.082Z,2.80
2018-11-21T10:21:59.948Z,2.70
2018-11-21T10:24:30.444Z,2.63
2018-11-21T10:27:00.509Z,3.33
2018-11-21T10:29:30.939Z,2.40
2018-11-21T10:32:00.904Z,2.60
2018-11-21T10:34:31.186Z,3.03
2018-11-21T10:37:01.305Z,3.20
2018-11-21T10:39:31.276Z,2.93
2018-11-21T10:42:01.280Z,2.67
2018-11-21T10:44:31.284Z,3.37
2018-11-21T10:47:02.999Z,3.13
2018-11-21T10:49:33.099Z,2.73
2018-11-21T10:52:02.914Z,2.13
2018-11-21T10:54:32.979Z,2.60
2018-11-21T10:57:03.441Z,2.33
2018-11-21T10:59:33.526Z,1.90
2018-11-21T11:02:20.739Z,2.03
2018-11-21T11:05:15.760Z,2.57
2018-11-21T11:08:08.334Z,2.37
2018-11-21T11:11:12.486Z,2.53
2018-11-21T11:14:07.489Z,2.20
2018-11-21T11:16:54.952Z,2.33
2018-11-21T11:19:54.134Z,1.90
2018-11-21T11:22:42.879Z,2.00
2018-11-21T11:25:46.795Z,1.70
2018-11-21T11:28:43.259Z,1.80
2018-11-21T11:31:44.236Z,1.90
2018-11-21T11:34:31.264Z,2.10
2018-11-21T11:37:22.699Z,1.87
2018-11-21T11:40:09.814Z,2.00
2018-11-21T11:42:58.997Z,1.97
2018-11-21T11:46:05.955Z,2.23
2018-11-21T11:48:58.491Z,2.20
2018-11-21T11:51:50.345Z,2.33
2018-11-21T11:54:42.328Z,2.50
2018-11-21T11:57:40.593Z,2.47
2018-11-21T12:00:21.324Z,2.07
2018-11-21T12:03:13.268Z,2.43
2018-11-21T12:06:00.460Z,2.60
2018-11-21T12:08:52.683Z,2.40
2018-11-21T12:11:59.141Z,2.80
2018-11-21T12:14:36.022Z,2.20
2018-11-21T12:17:25.549Z,2.80
2018-11-21T12:20:20.874Z,2.77
2018-11-21T12:23:08.444Z,2.70
2018-11-21T12:25:56.380Z,2.90
2018-11-21T12:28:40.812Z,2.90
2018-11-21T12:31:26.235Z,3.60
2018-11-21T12:34:14.349Z,3.30
2018-11-21T12:37:01.590Z,3.27
2018-11-21T12:39:50.553Z,3.10
2018-11-21T12:42:40.775Z,2.10
2018-11-21T12:45:42.025Z,3.13
2018-11-21T12:48:29.884Z,3.40
2018-11-21T12:51:18.998Z,3.67
2018-11-21T12:54:13.333Z,3.63
2018-11-21T12:57:17.483Z,4.57
2018-11-21T13:00:05.427Z,4.23
2018-11-21T13:02:56.948Z,3.50
2018-11-21T13:05:51.339Z,4.10
2018-11-21T13:08:42.449Z,4.83
2018-11-21T13:11:45.259Z,4.90
2018-11-21T13:14:42.811Z,5.43
2018-11-21T13:17:37.323Z,5.07
2018-11-21T13:20:45.239Z,6.07
2018-11-21T13:23:24.534Z,6.53
2018-11-21T13:26:19.099Z,6.23
2018-11-21T13:29:24.940Z,6.30
2018-11-21T13:32:16.699Z,6.23
2018-11-21T13:34:53.143Z,7.13
2018-11-21T13:37:50.893Z,6.90
2018-11-21T13:40:40.214Z,6.90
2018-11-21T13:43:39.438Z,7.77
2018-11-21T13:46:29.469Z,6.30
2018-11-21T13:49:18.839Z,6.67
2018-11-21T13:52:07.484Z,7.37
2018-11-21T13:55:02.464Z,6.70
2018-11-21T13:57:32.764Z,7.37
2018-11-21T14:00:03.564Z,6.27
2018-11-21T14:02:33.424Z,7.30
2018-11-21T14:05:03.324Z,8.27
2018-11-21T14:07:33.853Z,7.83
2018-11-21T14:10:04.179Z,6.97
2018-11-21T14:12:34.103Z,7.40
2018-11-21T14:15:04.053Z,6.80
2018-11-21T14:17:33.918Z,6.60
2018-11-21T14:20:04.009Z,6.63
2018-11-21T14:22:33.915Z,6.33
2018-11-21T14:25:04.234Z,6.57
2018-11-21T14:27:34.294Z,6.00
2018-11-21T14:30:05.001Z,6.20
2018-11-21T14:32:36.914Z,7.00
2018-11-21T14:35:10.178Z,6.87
2018-11-21T14:37:40.054Z,7.30
2018-11-21T14:40:12.714Z,7.20
2018-11-21T14:42:42.893Z,5.97
2018-11-21T14:45:14.739Z,6.87
2018-11-21T14:47:46.791Z,6.67
2018-11-21T14:50:25.604Z,6.17
2018-11-21T14:52:55.413Z,6.00
2018-11-21T14:55:25.488Z,5.95
2018-11-21T14:57:57.913Z,6.07
2018-11-21T15:00:28.331Z,5.80
2018-11-21T15:02:58.829Z,5.27
2018-11-21T15:05:28.743Z,5.80
2018-11-21T15:08:00.157Z,5.83
2018-11-21T15:10:30.804Z,5.73
2018-11-21T15:13:04.714Z,5.70
2018-11-21T15:15:34.724Z,5.83
2018-11-21T15:18:04.909Z,5.20
2018-11-21T15:20:34.809Z,5.60
2018-11-21T15:23:05.644Z,5.50
2018-11-21T15:25:36.273Z,6.20
2018-11-21T15:28:06.569Z,6.03
2018-11-21T15:30:36.509Z,6.20
2018-11-21T15:33:07.174Z,6.08
2018-11-21T15:35:37.534Z,6.33
2018-11-21T15:38:07.909Z,6.47
2018-11-21T15:40:39.368Z,6.62
2018-11-21T15:43:09.618Z,6.73
2018-11-21T15:45:40.052Z,7.07
2018-11-21T15:48:10.295Z,6.62
2018-11-21T15:50:40.514Z,7.10
2018-11-21T15:53:10.614Z,8.43
2018-11-21T15:55:40.649Z,7.50
2018-11-21T15:58:10.545Z,6.83
2018-11-21T16:00:40.649Z,7.53
2018-11-21T16:03:11.924Z,9.50
2018-11-21T16:05:41.798Z,9.23
2018-11-21T16:08:11.670Z,8.80
2018-11-21T16:10:43.339Z,8.27
2018-11-21T16:13:13.194Z,7.77
2018-11-21T16:15:51.082Z,7.70
2018-11-21T16:18:23.324Z,7.40
2018-11-21T16:20:53.191Z,8.80
2018-11-21T16:23:23.268Z,8.37
2018-11-21T16:25:53.019Z,7.03
2018-11-21T16:28:23.169Z,6.83
2018-11-21T16:30:53.146Z,6.90
2018-11-21T16:33:23.150Z,6.80
2018-11-21T16:35:53.315Z,7.28
2018-11-21T16:38:23.845Z,7.17
2018-11-21T16:40:54.179Z,7.58
2018-11-21T16:43:24.966Z,7.37
2018-11-21T16:45:56.844Z,8.23
2018-11-21T16:48:26.674Z,7.17
2018-11-21T16:50:56.489Z,7.60
2018-11-21T16:53:26.688Z,8.73
2018-11-21T16:55:58.828Z,7.40
2018-11-21T16:58:29.115Z,8.40
2018-11-21T17:00:59.594Z,8.73
2018-11-21T17:03:28.803Z,7.73
2018-11-21T17:05:59.079Z,9.00
2018-11-21T17:08:29.294Z,8.13
2018-11-21T17:10:59.519Z,8.25
2018-11-21T17:13:29.360Z,7.57
2018-11-21T17:15:59.657Z,10.07
2018-11-21T17:18:30.074Z,9.53
2018-11-21T17:20:59.880Z,9.13
2018-11-21T17:23:29.800Z,9.40
2018-11-21T17:25:59.889Z,9.33
2018-11-21T17:28:30.403Z,9.70
2018-11-21T17:31:00.333Z,10.37
2018-11-21T17:33:30.721Z,9.67
2018-11-21T17:36:00.540Z,9.33
2018-11-21T17:38:33.612Z,9.50
2018-11-21T17:41:00.596Z,9.97
2018-11-21T17:43:30.955Z,10.97
2018-11-21T17:46:04.080Z,10.93
2018-11-21T17:48:33.529Z,10.03
2018-11-21T17:51:04.597Z,11.00
2018-11-21T17:53:34.764Z,10.53
2018-11-21T17:56:04.558Z,9.90
2018-11-21T17:58:34.314Z,10.83
2018-11-21T18:01:04.415Z,11.73
2018-11-21T18:03:34.679Z,11.43
2018-11-21T18:06:04.894Z,11.57
2018-11-21T18:08:37.744Z,11.83
2018-11-21T18:11:07.721Z,11.63
2018-11-21T18:13:37.473Z,12.43
2018-11-21T18:16:07.988Z,11.97
2018-11-21T18:18:38.325Z,12.10
2018-11-21T18:21:08.155Z,13.03
2018-11-21T18:23:39.075Z,13.03
2018-11-21T18:26:08.933Z,12.53
2018-11-21T18:28:39.408Z,12.40
2018-11-21T18:31:09.575Z,12.17
2018-11-21T18:33:39.614Z,11.63
2018-11-21T18:36:09.648Z,12.60
2018-11-21T18:38:39.992Z,13.40
2018-11-21T18:41:11.360Z,12.53
2018-11-21T18:43:41.368Z,13.07
2018-11-21T18:46:11.181Z,11.87
2018-11-21T18:48:40.978Z,12.87
2018-11-21T18:51:11.169Z,12.77
2018-11-21T18:53:41.524Z,13.87
2018-11-21T18:56:35.908Z,13.93
2018-11-21T18:59:16.002Z,13.43
2018-11-21T19:01:46.782Z,13.27
2018-11-21T19:04:16.119Z,13.37
2018-11-21T19:06:46.303Z,13.43
2018-11-21T19:09:16.925Z,13.50
2018-11-21T19:11:46.750Z,13.63
2018-11-21T19:14:16.629Z,14.23
2018-11-21T19:16:46.524Z,14.57
2018-11-21T19:19:16.439Z,13.83
2018-11-21T19:21:46.720Z,14.03
2018-11-21T19:24:17.036Z,13.93
2018-11-21T19:26:47.694Z,13.80
2018-11-21T19:29:17.949Z,14.57
2018-11-21T19:31:47.964Z,14.77
2018-11-21T19:34:17.819Z,12.97
2018-11-21T19:36:48.094Z,12.17
2018-11-21T19:39:18.273Z,14.10
2018-11-21T19:41:48.269Z,13.50
2018-11-21T19:44:18.264Z,13.73
2018-11-21T19:46:48.490Z,13.30
2018-11-21T19:49:18.296Z,13.20
2018-11-21T19:51:48.609Z,12.07
2018-11-21T19:54:18.793Z,12.63
2018-11-21T19:56:48.954Z,11.90
2018-11-21T19:59:29.715Z,12.93
2018-11-21T20:01:59.550Z,12.63
2018-11-21T20:04:29.747Z,11.73
2018-11-21T20:06:59.585Z,12.20
2018-11-21T20:09:32.564Z,12.83
2018-11-21T20:12:02.853Z,11.93
2018-11-21T20:14:32.694Z,12.40
2018-11-21T20:17:03.041Z,12.95
2018-11-21T20:19:32.794Z,12.53
2018-11-21T20:22:02.745Z,12.83
2018-11-21T20:24:32.681Z,12.80
2018-11-21T20:27:02.648Z,12.93
2018-11-21T20:29:32.679Z,13.30
2018-11-21T20:32:03.526Z,12.43
2018-11-21T20:34:33.316Z,12.63
2018-11-21T20:37:03.319Z,12.88
2018-11-21T20:39:33.199Z,12.63
2018-11-21T20:42:03.349Z,12.30
2018-11-21T20:44:33.363Z,12.17
2018-11-21T20:47:03.814Z,12.70
2018-11-21T20:49:33.964Z,13.10
2018-11-21T20:52:06.933Z,12.93
2018-11-21T20:54:37.024Z,12.00
2018-11-21T20:57:07.285Z,13.33
2018-11-21T20:59:37.429Z,14.03
2018-11-21T21:02:07.339Z,13.27
2018-11-21T21:04:37.478Z,13.63
2018-11-21T21:07:07.590Z,13.03
2018-11-21T21:09:37.884Z,12.57
2018-11-21T21:12:08.884Z,13.77
2018-11-21T21:14:38.804Z,13.10
2018-11-21T21:17:08.744Z,12.23
2018-11-21T21:19:40.515Z,12.00
2018-11-21T21:22:10.405Z,12.77
2018-11-21T21:24:40.322Z,12.57
2018-11-21T21:27:10.254Z,13.10
2018-11-21T21:29:43.419Z,12.83
2018-11-21T21:32:13.393Z,12.80
2018-11-21T21:34:43.463Z,12.13
2018-11-21T21:37:13.386Z,12.57
2018-11-21T21:39:43.284Z,12.53
2018-11-21T21:42:13.224Z,12.93
2018-11-21T21:44:44.423Z,13.27
2018-11-21T21:47:14.968Z,12.53
2018-11-21T21:49:46.009Z,12.60
2018-11-21T21:52:15.933Z,12.20
2018-11-21T21:54:45.750Z,11.70
2018-11-21T21:57:15.704Z,12.37
2018-11-21T21:59:45.544Z,10.53
2018-11-21T22:02:15.839Z,11.93
2018-11-21T22:04:45.654Z,10.87
2018-11-21T22:07:15.744Z,11.00
2018-11-21T22:12:16.953Z,12.23
2018-11-21T22:14:47.012Z,12.07
2018-11-21T22:17:17.099Z,11.90
2018-11-21T22:19:46.990Z,12.90
2018-11-21T22:22:16.840Z,11.57
2018-11-21T22:24:46.945Z,13.97
2018-11-21T22:27:18.199Z,14.37
2018-11-21T22:29:48.024Z,13.40
2018-11-21T22:32:17.914Z,15.10
2018-11-21T22:34:48.179Z,14.20
2018-11-21T22:37:18.039Z,14.90
2018-11-21T22:39:47.871Z,14.47
2018-11-21T22:42:18.124Z,14.53
2018-11-21T22:44:48.174Z,14.83
2018-11-21T22:47:21.674Z,15.17
2018-11-21T22:49:51.895Z,14.83
2018-11-21T22:52:21.749Z,15.40
2018-11-21T22:54:51.783Z,15.50
2018-11-21T22:57:21.874Z,16.50
2018-11-21T22:59:51.705Z,16.77
2018-11-21T23:02:21.655Z,16.30
2018-11-21T23:04:51.493Z,17.13
2018-11-21T23:07:21.465Z,16.27
2018-11-21T23:09:51.764Z,17.40
2018-11-21T23:12:21.564Z,17.53
2018-11-21T23:14:52.161Z,17.47
2018-11-21T23:17:21.989Z,17.17
2018-11-21T23:19:52.249Z,16.60
2018-11-21T23:22:22.024Z,17.17
2018-11-21T23:24:51.949Z,16.77
2018-11-21T23:27:22.029Z,17.60
2018-11-21T23:29:52.695Z,17.30
2018-11-21T23:32:22.649Z,17.30
2018-11-21T23:34:52.939Z,16.67
2018-11-21T23:37:22.989Z,16.87
2018-11-21T23:39:53.004Z,17.80
2018-11-21T23:42:22.789Z,18.53
2018-11-21T23:44:52.870Z,17.87
2018-11-21T23:47:23.259Z,16.70
2018-11-21T23:49:53.044Z,15.77
2018-11-21T23:52:24.624Z,16.80
2018-11-21T23:54:54.804Z,17.30
2018-11-21T23:57:24.943Z,16.50
2018-11-21T23:59:54.655Z,17.60
